<?xml version="1.0" encoding="UTF-8" standalone="no" ?>
<gpx xmlns="http://www.topografix.com/GPX/1/1" xmlns:xsi="http://www.w3.org/2001/XMLSchema-instance" xsi:schemaLocation="http://www.topografix.com/GPX/1/1 http://www.topografix.com/GPX/1/1/gpx.xsd" version="1.1" creator="VisuGPX - https://www.visugpx.com">
  <metadata>
    <name>Marche nordique Sénart 3</name>
    <desc><![CDATA[Parcours d\'environ 10km, au départ de la maison forestière \"du parc aux lièvres\" (parking)]]></desc>
  </metadata>
  <trk>
    <name><![CDATA[Tracé actuel: 06 NOV 2014 11:56]]></name>
    <trkseg>
      <trkpt lat="48.65143" lon="2.46015">
        <ele>80.41</ele>
        <time>2014-11-06T10:56:16Z</time>
      </trkpt>
      <trkpt lat="48.6514" lon="2.46013">
        <ele>84.73</ele>
        <time>2014-11-06T10:56:31Z</time>
      </trkpt>
    </trkseg>
  </trk>
  <trk>
    <name><![CDATA[Tracé actuel: 08 NOV 2014 09:13]]></name>
    <trkseg>
      <trkpt lat="48.65319" lon="2.46698">
        <ele>29.94</ele>
        <time>2014-11-08T08:13:48Z</time>
      </trkpt>
      <trkpt lat="48.65314" lon="2.46681">
        <ele>46.28</ele>
        <time>2014-11-08T08:14:00Z</time>
      </trkpt>
      <trkpt lat="48.65303" lon="2.46666">
        <ele>86.18</ele>
        <time>2014-11-08T08:14:17Z</time>
      </trkpt>
      <trkpt lat="48.65306" lon="2.46662">
        <ele>87.62</ele>
        <time>2014-11-08T08:14:34Z</time>
      </trkpt>
      <trkpt lat="48.65306" lon="2.46662">
        <ele>90.98</ele>
        <time>2014-11-08T08:14:52Z</time>
      </trkpt>
      <trkpt lat="48.6531" lon="2.46668">
        <ele>91.94</ele>
        <time>2014-11-08T08:15:03Z</time>
      </trkpt>
      <trkpt lat="48.65315" lon="2.4667">
        <ele>92.9</ele>
        <time>2014-11-08T08:15:08Z</time>
      </trkpt>
      <trkpt lat="48.65317" lon="2.4668">
        <ele>94.35</ele>
        <time>2014-11-08T08:15:19Z</time>
      </trkpt>
      <trkpt lat="48.65317" lon="2.467">
        <ele>99.63</ele>
        <time>2014-11-08T08:15:36Z</time>
      </trkpt>
      <trkpt lat="48.65323" lon="2.4673">
        <ele>103.96</ele>
        <time>2014-11-08T08:15:51Z</time>
      </trkpt>
      <trkpt lat="48.65329" lon="2.46758">
        <ele>104.92</ele>
        <time>2014-11-08T08:16:06Z</time>
      </trkpt>
      <trkpt lat="48.65333" lon="2.46767">
        <ele>104.44</ele>
        <time>2014-11-08T08:16:12Z</time>
      </trkpt>
      <trkpt lat="48.65354" lon="2.46777">
        <ele>106.84</ele>
        <time>2014-11-08T08:16:29Z</time>
      </trkpt>
      <trkpt lat="48.6536" lon="2.46775">
        <ele>110.21</ele>
        <time>2014-11-08T08:16:36Z</time>
      </trkpt>
      <trkpt lat="48.65376" lon="2.46776">
        <ele>114.53</ele>
        <time>2014-11-08T08:16:49Z</time>
      </trkpt>
      <trkpt lat="48.6539" lon="2.46767">
        <ele>126.07</ele>
        <time>2014-11-08T08:17:07Z</time>
      </trkpt>
      <trkpt lat="48.654" lon="2.4676">
        <ele>131.84</ele>
        <time>2014-11-08T08:17:18Z</time>
      </trkpt>
      <trkpt lat="48.65403" lon="2.46759">
        <ele>131.84</ele>
        <time>2014-11-08T08:17:20Z</time>
      </trkpt>
      <trkpt lat="48.65413" lon="2.46753">
        <ele>131.84</ele>
        <time>2014-11-08T08:17:27Z</time>
      </trkpt>
      <trkpt lat="48.65416" lon="2.46751">
        <ele>132.8</ele>
        <time>2014-11-08T08:17:30Z</time>
      </trkpt>
      <trkpt lat="48.65423" lon="2.46748">
        <ele>134.24</ele>
        <time>2014-11-08T08:17:35Z</time>
      </trkpt>
      <trkpt lat="48.65428" lon="2.46743">
        <ele>135.2</ele>
        <time>2014-11-08T08:17:39Z</time>
      </trkpt>
      <trkpt lat="48.65439" lon="2.4674">
        <ele>136.64</ele>
        <time>2014-11-08T08:17:47Z</time>
      </trkpt>
      <trkpt lat="48.65453" lon="2.46729">
        <ele>144.82</ele>
        <time>2014-11-08T08:18:00Z</time>
      </trkpt>
      <trkpt lat="48.65459" lon="2.46725">
        <ele>148.18</ele>
        <time>2014-11-08T08:18:06Z</time>
      </trkpt>
      <trkpt lat="48.65477" lon="2.46719">
        <ele>150.1</ele>
        <time>2014-11-08T08:18:20Z</time>
      </trkpt>
      <trkpt lat="48.6549" lon="2.46706">
        <ele>146.74</ele>
        <time>2014-11-08T08:18:28Z</time>
      </trkpt>
      <trkpt lat="48.65506" lon="2.46693">
        <ele>142.41</ele>
        <time>2014-11-08T08:18:38Z</time>
      </trkpt>
      <trkpt lat="48.6552" lon="2.4669">
        <ele>140.49</ele>
        <time>2014-11-08T08:18:47Z</time>
      </trkpt>
      <trkpt lat="48.65544" lon="2.46688">
        <ele>140.49</ele>
        <time>2014-11-08T08:19:04Z</time>
      </trkpt>
      <trkpt lat="48.65561" lon="2.46687">
        <ele>136.16</ele>
        <time>2014-11-08T08:19:19Z</time>
      </trkpt>
      <trkpt lat="48.65579" lon="2.46689">
        <ele>135.2</ele>
        <time>2014-11-08T08:19:34Z</time>
      </trkpt>
      <trkpt lat="48.65596" lon="2.46674">
        <ele>134.24</ele>
        <time>2014-11-08T08:19:48Z</time>
      </trkpt>
      <trkpt lat="48.65602" lon="2.46671">
        <ele>134.24</ele>
        <time>2014-11-08T08:19:52Z</time>
      </trkpt>
      <trkpt lat="48.65627" lon="2.46667">
        <ele>132.8</ele>
        <time>2014-11-08T08:20:07Z</time>
      </trkpt>
      <trkpt lat="48.65628" lon="2.46667">
        <ele>132.8</ele>
        <time>2014-11-08T08:20:08Z</time>
      </trkpt>
      <trkpt lat="48.65632" lon="2.46666">
        <ele>132.8</ele>
        <time>2014-11-08T08:20:11Z</time>
      </trkpt>
      <trkpt lat="48.65649" lon="2.46666">
        <ele>132.8</ele>
        <time>2014-11-08T08:20:23Z</time>
      </trkpt>
      <trkpt lat="48.65664" lon="2.46665">
        <ele>131.36</ele>
        <time>2014-11-08T08:20:35Z</time>
      </trkpt>
      <trkpt lat="48.65675" lon="2.46663">
        <ele>131.36</ele>
        <time>2014-11-08T08:20:42Z</time>
      </trkpt>
      <trkpt lat="48.65702" lon="2.46668">
        <ele>131.36</ele>
        <time>2014-11-08T08:20:57Z</time>
      </trkpt>
      <trkpt lat="48.65724" lon="2.46669">
        <ele>132.32</ele>
        <time>2014-11-08T08:21:12Z</time>
      </trkpt>
      <trkpt lat="48.65726" lon="2.46643">
        <ele>129.92</ele>
        <time>2014-11-08T08:21:27Z</time>
      </trkpt>
      <trkpt lat="48.65735" lon="2.46647">
        <ele>124.63</ele>
        <time>2014-11-08T08:21:49Z</time>
      </trkpt>
      <trkpt lat="48.65737" lon="2.46647">
        <ele>124.63</ele>
        <time>2014-11-08T08:21:51Z</time>
      </trkpt>
      <trkpt lat="48.65761" lon="2.4667">
        <ele>123.67</ele>
        <time>2014-11-08T08:21:59Z</time>
      </trkpt>
      <trkpt lat="48.65796" lon="2.46671">
        <ele>119.82</ele>
        <time>2014-11-08T08:22:15Z</time>
      </trkpt>
      <trkpt lat="48.658" lon="2.46667">
        <ele>119.34</ele>
        <time>2014-11-08T08:22:18Z</time>
      </trkpt>
      <trkpt lat="48.65811" lon="2.46662">
        <ele>118.86</ele>
        <time>2014-11-08T08:22:26Z</time>
      </trkpt>
      <trkpt lat="48.65823" lon="2.46657">
        <ele>119.34</ele>
        <time>2014-11-08T08:22:33Z</time>
      </trkpt>
      <trkpt lat="48.65839" lon="2.46652">
        <ele>119.34</ele>
        <time>2014-11-08T08:22:46Z</time>
      </trkpt>
      <trkpt lat="48.6587" lon="2.46645">
        <ele>120.3</ele>
        <time>2014-11-08T08:23:02Z</time>
      </trkpt>
      <trkpt lat="48.65889" lon="2.46625">
        <ele>120.78</ele>
        <time>2014-11-08T08:23:15Z</time>
      </trkpt>
      <trkpt lat="48.65911" lon="2.46606">
        <ele>119.82</ele>
        <time>2014-11-08T08:23:33Z</time>
      </trkpt>
      <trkpt lat="48.65938" lon="2.46598">
        <ele>118.86</ele>
        <time>2014-11-08T08:23:50Z</time>
      </trkpt>
      <trkpt lat="48.65954" lon="2.46593">
        <ele>120.3</ele>
        <time>2014-11-08T08:24:01Z</time>
      </trkpt>
      <trkpt lat="48.6596" lon="2.46585">
        <ele>121.74</ele>
        <time>2014-11-08T08:24:06Z</time>
      </trkpt>
      <trkpt lat="48.65978" lon="2.46559">
        <ele>121.74</ele>
        <time>2014-11-08T08:24:21Z</time>
      </trkpt>
      <trkpt lat="48.65979" lon="2.46557">
        <ele>121.74</ele>
        <time>2014-11-08T08:24:22Z</time>
      </trkpt>
      <trkpt lat="48.65993" lon="2.46527">
        <ele>122.22</ele>
        <time>2014-11-08T08:24:37Z</time>
      </trkpt>
      <trkpt lat="48.65995" lon="2.4652">
        <ele>122.22</ele>
        <time>2014-11-08T08:24:40Z</time>
      </trkpt>
      <trkpt lat="48.66005" lon="2.46495">
        <ele>121.74</ele>
        <time>2014-11-08T08:24:53Z</time>
      </trkpt>
      <trkpt lat="48.66007" lon="2.46493">
        <ele>121.74</ele>
        <time>2014-11-08T08:24:55Z</time>
      </trkpt>
      <trkpt lat="48.66013" lon="2.46488">
        <ele>120.78</ele>
        <time>2014-11-08T08:24:59Z</time>
      </trkpt>
      <trkpt lat="48.66033" lon="2.46482">
        <ele>119.82</ele>
        <time>2014-11-08T08:25:13Z</time>
      </trkpt>
      <trkpt lat="48.66038" lon="2.4648">
        <ele>118.86</ele>
        <time>2014-11-08T08:25:16Z</time>
      </trkpt>
      <trkpt lat="48.66048" lon="2.46477">
        <ele>117.42</ele>
        <time>2014-11-08T08:25:22Z</time>
      </trkpt>
      <trkpt lat="48.66068" lon="2.4646">
        <ele>117.42</ele>
        <time>2014-11-08T08:25:37Z</time>
      </trkpt>
      <trkpt lat="48.66087" lon="2.4644">
        <ele>115.5</ele>
        <time>2014-11-08T08:25:51Z</time>
      </trkpt>
      <trkpt lat="48.66101" lon="2.46428">
        <ele>120.3</ele>
        <time>2014-11-08T08:26:03Z</time>
      </trkpt>
      <trkpt lat="48.66105" lon="2.46416">
        <ele>120.3</ele>
        <time>2014-11-08T08:26:09Z</time>
      </trkpt>
      <trkpt lat="48.66122" lon="2.46395">
        <ele>119.34</ele>
        <time>2014-11-08T08:26:23Z</time>
      </trkpt>
      <trkpt lat="48.66138" lon="2.46381">
        <ele>117.9</ele>
        <time>2014-11-08T08:26:36Z</time>
      </trkpt>
      <trkpt lat="48.66142" lon="2.46376">
        <ele>116.46</ele>
        <time>2014-11-08T08:26:49Z</time>
      </trkpt>
      <trkpt lat="48.66145" lon="2.46374">
        <ele>117.42</ele>
        <time>2014-11-08T08:27:03Z</time>
      </trkpt>
      <trkpt lat="48.66146" lon="2.4637">
        <ele>117.9</ele>
        <time>2014-11-08T08:27:18Z</time>
      </trkpt>
      <trkpt lat="48.66147" lon="2.46363">
        <ele>118.38</ele>
        <time>2014-11-08T08:27:37Z</time>
      </trkpt>
      <trkpt lat="48.66149" lon="2.46362">
        <ele>115.98</ele>
        <time>2014-11-08T08:28:02Z</time>
      </trkpt>
      <trkpt lat="48.6615" lon="2.46361">
        <ele>115.5</ele>
        <time>2014-11-08T08:28:15Z</time>
      </trkpt>
      <trkpt lat="48.6615" lon="2.46361">
        <ele>113.09</ele>
        <time>2014-11-08T08:28:26Z</time>
      </trkpt>
      <trkpt lat="48.66151" lon="2.46358">
        <ele>110.21</ele>
        <time>2014-11-08T08:28:44Z</time>
      </trkpt>
      <trkpt lat="48.66152" lon="2.46357">
        <ele>109.25</ele>
        <time>2014-11-08T08:29:02Z</time>
      </trkpt>
      <trkpt lat="48.66153" lon="2.46354">
        <ele>107.81</ele>
        <time>2014-11-08T08:29:15Z</time>
      </trkpt>
      <trkpt lat="48.66154" lon="2.46354">
        <ele>105.88</ele>
        <time>2014-11-08T08:29:33Z</time>
      </trkpt>
      <trkpt lat="48.66156" lon="2.46354">
        <ele>105.4</ele>
        <time>2014-11-08T08:29:51Z</time>
      </trkpt>
      <trkpt lat="48.66155" lon="2.46354">
        <ele>104.92</ele>
        <time>2014-11-08T08:30:05Z</time>
      </trkpt>
      <trkpt lat="48.66155" lon="2.46358">
        <ele>103.96</ele>
        <time>2014-11-08T08:30:19Z</time>
      </trkpt>
      <trkpt lat="48.66156" lon="2.46357">
        <ele>103.48</ele>
        <time>2014-11-08T08:30:39Z</time>
      </trkpt>
      <trkpt lat="48.66156" lon="2.46356">
        <ele>103.48</ele>
        <time>2014-11-08T08:30:55Z</time>
      </trkpt>
      <trkpt lat="48.66157" lon="2.46354">
        <ele>102.52</ele>
        <time>2014-11-08T08:31:10Z</time>
      </trkpt>
      <trkpt lat="48.66158" lon="2.46361">
        <ele>102.04</ele>
        <time>2014-11-08T08:31:26Z</time>
      </trkpt>
      <trkpt lat="48.66157" lon="2.46363">
        <ele>102.04</ele>
        <time>2014-11-08T08:31:39Z</time>
      </trkpt>
      <trkpt lat="48.66156" lon="2.4636">
        <ele>100.11</ele>
        <time>2014-11-08T08:31:50Z</time>
      </trkpt>
      <trkpt lat="48.66155" lon="2.46364">
        <ele>98.19</ele>
        <time>2014-11-08T08:32:15Z</time>
      </trkpt>
      <trkpt lat="48.66154" lon="2.46365">
        <ele>97.71</ele>
        <time>2014-11-08T08:32:36Z</time>
      </trkpt>
      <trkpt lat="48.66155" lon="2.46367">
        <ele>97.71</ele>
        <time>2014-11-08T08:32:55Z</time>
      </trkpt>
      <trkpt lat="48.66154" lon="2.46363">
        <ele>97.71</ele>
        <time>2014-11-08T08:33:07Z</time>
      </trkpt>
      <trkpt lat="48.66155" lon="2.46359">
        <ele>94.35</ele>
        <time>2014-11-08T08:33:24Z</time>
      </trkpt>
      <trkpt lat="48.66155" lon="2.46356">
        <ele>93.87</ele>
        <time>2014-11-08T08:33:40Z</time>
      </trkpt>
      <trkpt lat="48.66158" lon="2.46355">
        <ele>94.35</ele>
        <time>2014-11-08T08:33:45Z</time>
      </trkpt>
      <trkpt lat="48.66154" lon="2.46321">
        <ele>95.79</ele>
        <time>2014-11-08T08:34:02Z</time>
      </trkpt>
      <trkpt lat="48.66163" lon="2.46306">
        <ele>100.6</ele>
        <time>2014-11-08T08:34:14Z</time>
      </trkpt>
      <trkpt lat="48.66169" lon="2.46294">
        <ele>107.32</ele>
        <time>2014-11-08T08:34:27Z</time>
      </trkpt>
      <trkpt lat="48.66174" lon="2.46269">
        <ele>113.57</ele>
        <time>2014-11-08T08:34:40Z</time>
      </trkpt>
      <trkpt lat="48.66179" lon="2.46256">
        <ele>115.01</ele>
        <time>2014-11-08T08:34:50Z</time>
      </trkpt>
      <trkpt lat="48.66183" lon="2.46255">
        <ele>115.5</ele>
        <time>2014-11-08T08:34:53Z</time>
      </trkpt>
      <trkpt lat="48.66189" lon="2.46244">
        <ele>116.94</ele>
        <time>2014-11-08T08:35:00Z</time>
      </trkpt>
      <trkpt lat="48.66193" lon="2.46237">
        <ele>117.9</ele>
        <time>2014-11-08T08:35:04Z</time>
      </trkpt>
      <trkpt lat="48.66199" lon="2.46224">
        <ele>118.38</ele>
        <time>2014-11-08T08:35:09Z</time>
      </trkpt>
      <trkpt lat="48.6621" lon="2.46198">
        <ele>116.94</ele>
        <time>2014-11-08T08:35:24Z</time>
      </trkpt>
      <trkpt lat="48.66218" lon="2.46181">
        <ele>115.5</ele>
        <time>2014-11-08T08:35:33Z</time>
      </trkpt>
      <trkpt lat="48.66223" lon="2.46175">
        <ele>114.53</ele>
        <time>2014-11-08T08:35:38Z</time>
      </trkpt>
      <trkpt lat="48.66239" lon="2.46172">
        <ele>115.98</ele>
        <time>2014-11-08T08:35:53Z</time>
      </trkpt>
      <trkpt lat="48.66259" lon="2.46171">
        <ele>115.98</ele>
        <time>2014-11-08T08:36:07Z</time>
      </trkpt>
      <trkpt lat="48.66267" lon="2.46169">
        <ele>116.94</ele>
        <time>2014-11-08T08:36:12Z</time>
      </trkpt>
      <trkpt lat="48.6628" lon="2.46167">
        <ele>117.42</ele>
        <time>2014-11-08T08:36:24Z</time>
      </trkpt>
      <trkpt lat="48.66282" lon="2.46168">
        <ele>118.38</ele>
        <time>2014-11-08T08:36:26Z</time>
      </trkpt>
      <trkpt lat="48.66285" lon="2.46169">
        <ele>119.34</ele>
        <time>2014-11-08T08:36:28Z</time>
      </trkpt>
      <trkpt lat="48.66297" lon="2.46165">
        <ele>121.74</ele>
        <time>2014-11-08T08:36:36Z</time>
      </trkpt>
      <trkpt lat="48.66312" lon="2.46164">
        <ele>127.03</ele>
        <time>2014-11-08T08:36:48Z</time>
      </trkpt>
      <trkpt lat="48.66325" lon="2.46159">
        <ele>127.51</ele>
        <time>2014-11-08T08:36:57Z</time>
      </trkpt>
      <trkpt lat="48.66332" lon="2.46157">
        <ele>126.55</ele>
        <time>2014-11-08T08:37:01Z</time>
      </trkpt>
      <trkpt lat="48.66343" lon="2.46157">
        <ele>125.11</ele>
        <time>2014-11-08T08:37:07Z</time>
      </trkpt>
      <trkpt lat="48.6635" lon="2.46157">
        <ele>125.11</ele>
        <time>2014-11-08T08:37:11Z</time>
      </trkpt>
      <trkpt lat="48.66353" lon="2.46156">
        <ele>125.11</ele>
        <time>2014-11-08T08:37:13Z</time>
      </trkpt>
      <trkpt lat="48.66355" lon="2.46155">
        <ele>125.59</ele>
        <time>2014-11-08T08:37:15Z</time>
      </trkpt>
      <trkpt lat="48.66369" lon="2.46144">
        <ele>127.99</ele>
        <time>2014-11-08T08:37:27Z</time>
      </trkpt>
      <trkpt lat="48.66392" lon="2.46134">
        <ele>129.43</ele>
        <time>2014-11-08T08:37:42Z</time>
      </trkpt>
      <trkpt lat="48.66422" lon="2.46127">
        <ele>123.19</ele>
        <time>2014-11-08T08:37:56Z</time>
      </trkpt>
      <trkpt lat="48.66442" lon="2.46121">
        <ele>122.71</ele>
        <time>2014-11-08T08:38:07Z</time>
      </trkpt>
      <trkpt lat="48.66444" lon="2.46121">
        <ele>122.71</ele>
        <time>2014-11-08T08:38:08Z</time>
      </trkpt>
      <trkpt lat="48.66462" lon="2.46121">
        <ele>120.78</ele>
        <time>2014-11-08T08:38:18Z</time>
      </trkpt>
      <trkpt lat="48.66487" lon="2.46115">
        <ele>124.15</ele>
        <time>2014-11-08T08:38:33Z</time>
      </trkpt>
      <trkpt lat="48.66506" lon="2.46117">
        <ele>127.99</ele>
        <time>2014-11-08T08:38:46Z</time>
      </trkpt>
      <trkpt lat="48.6651" lon="2.46116">
        <ele>127.99</ele>
        <time>2014-11-08T08:38:49Z</time>
      </trkpt>
      <trkpt lat="48.66515" lon="2.461">
        <ele>128.95</ele>
        <time>2014-11-08T08:38:58Z</time>
      </trkpt>
      <trkpt lat="48.66514" lon="2.46095">
        <ele>130.4</ele>
        <time>2014-11-08T08:39:01Z</time>
      </trkpt>
      <trkpt lat="48.66509" lon="2.4607">
        <ele>130.88</ele>
        <time>2014-11-08T08:39:15Z</time>
      </trkpt>
      <trkpt lat="48.66508" lon="2.46044">
        <ele>134.24</ele>
        <time>2014-11-08T08:39:27Z</time>
      </trkpt>
      <trkpt lat="48.66503" lon="2.46008">
        <ele>135.68</ele>
        <time>2014-11-08T08:39:40Z</time>
      </trkpt>
      <trkpt lat="48.66495" lon="2.45975">
        <ele>134.24</ele>
        <time>2014-11-08T08:39:54Z</time>
      </trkpt>
      <trkpt lat="48.66492" lon="2.45942">
        <ele>132.32</ele>
        <time>2014-11-08T08:40:08Z</time>
      </trkpt>
      <trkpt lat="48.66484" lon="2.45908">
        <ele>127.03</ele>
        <time>2014-11-08T08:40:21Z</time>
      </trkpt>
      <trkpt lat="48.6648" lon="2.45873">
        <ele>123.67</ele>
        <time>2014-11-08T08:40:34Z</time>
      </trkpt>
      <trkpt lat="48.66479" lon="2.4587">
        <ele>123.19</ele>
        <time>2014-11-08T08:40:36Z</time>
      </trkpt>
      <trkpt lat="48.66468" lon="2.45828">
        <ele>123.19</ele>
        <time>2014-11-08T08:40:53Z</time>
      </trkpt>
      <trkpt lat="48.66466" lon="2.45818">
        <ele>121.26</ele>
        <time>2014-11-08T08:40:57Z</time>
      </trkpt>
      <trkpt lat="48.66464" lon="2.4581">
        <ele>119.82</ele>
        <time>2014-11-08T08:41:01Z</time>
      </trkpt>
      <trkpt lat="48.66458" lon="2.45785">
        <ele>117.9</ele>
        <time>2014-11-08T08:41:12Z</time>
      </trkpt>
      <trkpt lat="48.66455" lon="2.45771">
        <ele>116.46</ele>
        <time>2014-11-08T08:41:18Z</time>
      </trkpt>
      <trkpt lat="48.66448" lon="2.45748">
        <ele>116.94</ele>
        <time>2014-11-08T08:41:32Z</time>
      </trkpt>
      <trkpt lat="48.6644" lon="2.45725">
        <ele>120.3</ele>
        <time>2014-11-08T08:41:44Z</time>
      </trkpt>
      <trkpt lat="48.66433" lon="2.45696">
        <ele>129.43</ele>
        <time>2014-11-08T08:41:55Z</time>
      </trkpt>
      <trkpt lat="48.66427" lon="2.45678">
        <ele>133.28</ele>
        <time>2014-11-08T08:42:03Z</time>
      </trkpt>
      <trkpt lat="48.66418" lon="2.45654">
        <ele>130.88</ele>
        <time>2014-11-08T08:42:16Z</time>
      </trkpt>
      <trkpt lat="48.66418" lon="2.45646">
        <ele>130.4</ele>
        <time>2014-11-08T08:42:20Z</time>
      </trkpt>
      <trkpt lat="48.66415" lon="2.45634">
        <ele>129.92</ele>
        <time>2014-11-08T08:42:25Z</time>
      </trkpt>
      <trkpt lat="48.66414" lon="2.45624">
        <ele>128.47</ele>
        <time>2014-11-08T08:42:28Z</time>
      </trkpt>
      <trkpt lat="48.66412" lon="2.45606">
        <ele>127.51</ele>
        <time>2014-11-08T08:42:36Z</time>
      </trkpt>
      <trkpt lat="48.66402" lon="2.45573">
        <ele>129.43</ele>
        <time>2014-11-08T08:42:51Z</time>
      </trkpt>
      <trkpt lat="48.66395" lon="2.45556">
        <ele>131.36</ele>
        <time>2014-11-08T08:43:02Z</time>
      </trkpt>
      <trkpt lat="48.66394" lon="2.45549">
        <ele>132.32</ele>
        <time>2014-11-08T08:43:05Z</time>
      </trkpt>
      <trkpt lat="48.66392" lon="2.45514">
        <ele>134.72</ele>
        <time>2014-11-08T08:43:21Z</time>
      </trkpt>
      <trkpt lat="48.66396" lon="2.45507">
        <ele>136.64</ele>
        <time>2014-11-08T08:43:29Z</time>
      </trkpt>
      <trkpt lat="48.66406" lon="2.45489">
        <ele>139.53</ele>
        <time>2014-11-08T08:43:41Z</time>
      </trkpt>
      <trkpt lat="48.66412" lon="2.45481">
        <ele>139.05</ele>
        <time>2014-11-08T08:43:48Z</time>
      </trkpt>
      <trkpt lat="48.66423" lon="2.4547">
        <ele>136.16</ele>
        <time>2014-11-08T08:43:56Z</time>
      </trkpt>
      <trkpt lat="48.66451" lon="2.45443">
        <ele>130.88</ele>
        <time>2014-11-08T08:44:14Z</time>
      </trkpt>
      <trkpt lat="48.66459" lon="2.45434">
        <ele>129.43</ele>
        <time>2014-11-08T08:44:21Z</time>
      </trkpt>
      <trkpt lat="48.66461" lon="2.45432">
        <ele>128.47</ele>
        <time>2014-11-08T08:44:23Z</time>
      </trkpt>
      <trkpt lat="48.66482" lon="2.45402">
        <ele>121.26</ele>
        <time>2014-11-08T08:44:40Z</time>
      </trkpt>
      <trkpt lat="48.66488" lon="2.45393">
        <ele>121.26</ele>
        <time>2014-11-08T08:44:45Z</time>
      </trkpt>
      <trkpt lat="48.66512" lon="2.45367">
        <ele>117.42</ele>
        <time>2014-11-08T08:45:02Z</time>
      </trkpt>
      <trkpt lat="48.66524" lon="2.45358">
        <ele>115.98</ele>
        <time>2014-11-08T08:45:12Z</time>
      </trkpt>
      <trkpt lat="48.66544" lon="2.45333">
        <ele>121.26</ele>
        <time>2014-11-08T08:45:29Z</time>
      </trkpt>
      <trkpt lat="48.66555" lon="2.45323">
        <ele>125.11</ele>
        <time>2014-11-08T08:45:39Z</time>
      </trkpt>
      <trkpt lat="48.66563" lon="2.45314">
        <ele>124.15</ele>
        <time>2014-11-08T08:45:45Z</time>
      </trkpt>
      <trkpt lat="48.66571" lon="2.45305">
        <ele>125.59</ele>
        <time>2014-11-08T08:45:52Z</time>
      </trkpt>
      <trkpt lat="48.66582" lon="2.45291">
        <ele>128.47</ele>
        <time>2014-11-08T08:46:02Z</time>
      </trkpt>
      <trkpt lat="48.66603" lon="2.45289">
        <ele>131.84</ele>
        <time>2014-11-08T08:46:18Z</time>
      </trkpt>
      <trkpt lat="48.66621" lon="2.45295">
        <ele>143.37</ele>
        <time>2014-11-08T08:46:33Z</time>
      </trkpt>
      <trkpt lat="48.66643" lon="2.45295">
        <ele>140.01</ele>
        <time>2014-11-08T08:46:45Z</time>
      </trkpt>
      <trkpt lat="48.6667" lon="2.45295">
        <ele>138.57</ele>
        <time>2014-11-08T08:47:02Z</time>
      </trkpt>
      <trkpt lat="48.66674" lon="2.45295">
        <ele>139.05</ele>
        <time>2014-11-08T08:47:05Z</time>
      </trkpt>
      <trkpt lat="48.66677" lon="2.45295">
        <ele>139.53</ele>
        <time>2014-11-08T08:47:07Z</time>
      </trkpt>
      <trkpt lat="48.66687" lon="2.45294">
        <ele>137.13</ele>
        <time>2014-11-08T08:47:12Z</time>
      </trkpt>
      <trkpt lat="48.66709" lon="2.45285">
        <ele>133.28</ele>
        <time>2014-11-08T08:47:27Z</time>
      </trkpt>
      <trkpt lat="48.66711" lon="2.45285">
        <ele>130.88</ele>
        <time>2014-11-08T08:47:49Z</time>
      </trkpt>
      <trkpt lat="48.66711" lon="2.45284">
        <ele>127.03</ele>
        <time>2014-11-08T08:48:09Z</time>
      </trkpt>
      <trkpt lat="48.66716" lon="2.45283">
        <ele>123.19</ele>
        <time>2014-11-08T08:48:21Z</time>
      </trkpt>
      <trkpt lat="48.66726" lon="2.45286">
        <ele>120.78</ele>
        <time>2014-11-08T08:48:32Z</time>
      </trkpt>
      <trkpt lat="48.66735" lon="2.45286">
        <ele>121.74</ele>
        <time>2014-11-08T08:48:42Z</time>
      </trkpt>
      <trkpt lat="48.6674" lon="2.45288">
        <ele>121.74</ele>
        <time>2014-11-08T08:48:46Z</time>
      </trkpt>
      <trkpt lat="48.6676" lon="2.4529">
        <ele>119.34</ele>
        <time>2014-11-08T08:48:59Z</time>
      </trkpt>
      <trkpt lat="48.6678" lon="2.45291">
        <ele>119.82</ele>
        <time>2014-11-08T08:49:14Z</time>
      </trkpt>
      <trkpt lat="48.66791" lon="2.45294">
        <ele>122.22</ele>
        <time>2014-11-08T08:49:21Z</time>
      </trkpt>
      <trkpt lat="48.668" lon="2.45293">
        <ele>122.22</ele>
        <time>2014-11-08T08:49:26Z</time>
      </trkpt>
      <trkpt lat="48.66818" lon="2.45289">
        <ele>117.42</ele>
        <time>2014-11-08T08:49:40Z</time>
      </trkpt>
      <trkpt lat="48.66829" lon="2.45287">
        <ele>116.46</ele>
        <time>2014-11-08T08:49:47Z</time>
      </trkpt>
      <trkpt lat="48.66851" lon="2.4529">
        <ele>118.86</ele>
        <time>2014-11-08T08:50:03Z</time>
      </trkpt>
      <trkpt lat="48.66868" lon="2.45296">
        <ele>123.67</ele>
        <time>2014-11-08T08:50:16Z</time>
      </trkpt>
      <trkpt lat="48.66875" lon="2.45277">
        <ele>110.69</ele>
        <time>2014-11-08T08:50:30Z</time>
      </trkpt>
      <trkpt lat="48.66878" lon="2.45277">
        <ele>104.92</ele>
        <time>2014-11-08T08:50:48Z</time>
      </trkpt>
      <trkpt lat="48.66879" lon="2.45277">
        <ele>101.56</ele>
        <time>2014-11-08T08:51:08Z</time>
      </trkpt>
      <trkpt lat="48.6688" lon="2.45276">
        <ele>98.67</ele>
        <time>2014-11-08T08:51:30Z</time>
      </trkpt>
      <trkpt lat="48.66879" lon="2.45275">
        <ele>97.23</ele>
        <time>2014-11-08T08:51:47Z</time>
      </trkpt>
      <trkpt lat="48.66879" lon="2.45274">
        <ele>97.23</ele>
        <time>2014-11-08T08:52:04Z</time>
      </trkpt>
      <trkpt lat="48.66878" lon="2.45275">
        <ele>95.31</ele>
        <time>2014-11-08T08:52:26Z</time>
      </trkpt>
      <trkpt lat="48.66878" lon="2.45274">
        <ele>94.83</ele>
        <time>2014-11-08T08:52:53Z</time>
      </trkpt>
      <trkpt lat="48.66879" lon="2.45275">
        <ele>94.35</ele>
        <time>2014-11-08T08:53:13Z</time>
      </trkpt>
      <trkpt lat="48.66879" lon="2.45274">
        <ele>94.35</ele>
        <time>2014-11-08T08:53:36Z</time>
      </trkpt>
      <trkpt lat="48.6688" lon="2.45272">
        <ele>95.79</ele>
        <time>2014-11-08T08:53:56Z</time>
      </trkpt>
      <trkpt lat="48.66879" lon="2.45268">
        <ele>96.27</ele>
        <time>2014-11-08T08:54:00Z</time>
      </trkpt>
      <trkpt lat="48.66879" lon="2.45243">
        <ele>104.44</ele>
        <time>2014-11-08T08:54:16Z</time>
      </trkpt>
      <trkpt lat="48.66879" lon="2.45219">
        <ele>108.77</ele>
        <time>2014-11-08T08:54:28Z</time>
      </trkpt>
      <trkpt lat="48.66883" lon="2.45184">
        <ele>113.57</ele>
        <time>2014-11-08T08:54:44Z</time>
      </trkpt>
      <trkpt lat="48.66887" lon="2.45139">
        <ele>111.17</ele>
        <time>2014-11-08T08:55:01Z</time>
      </trkpt>
      <trkpt lat="48.66889" lon="2.45106">
        <ele>112.13</ele>
        <time>2014-11-08T08:55:17Z</time>
      </trkpt>
      <trkpt lat="48.66891" lon="2.451">
        <ele>113.57</ele>
        <time>2014-11-08T08:55:20Z</time>
      </trkpt>
      <trkpt lat="48.66896" lon="2.45089">
        <ele>113.09</ele>
        <time>2014-11-08T08:55:26Z</time>
      </trkpt>
      <trkpt lat="48.66905" lon="2.45061">
        <ele>115.5</ele>
        <time>2014-11-08T08:55:40Z</time>
      </trkpt>
      <trkpt lat="48.66911" lon="2.45036">
        <ele>117.9</ele>
        <time>2014-11-08T08:55:50Z</time>
      </trkpt>
      <trkpt lat="48.66913" lon="2.44994">
        <ele>119.34</ele>
        <time>2014-11-08T08:56:05Z</time>
      </trkpt>
      <trkpt lat="48.66919" lon="2.44967">
        <ele>123.67</ele>
        <time>2014-11-08T08:56:19Z</time>
      </trkpt>
      <trkpt lat="48.66936" lon="2.44952">
        <ele>124.15</ele>
        <time>2014-11-08T08:56:33Z</time>
      </trkpt>
      <trkpt lat="48.66952" lon="2.44926">
        <ele>120.78</ele>
        <time>2014-11-08T08:56:47Z</time>
      </trkpt>
      <trkpt lat="48.66971" lon="2.44903">
        <ele>124.63</ele>
        <time>2014-11-08T08:57:04Z</time>
      </trkpt>
      <trkpt lat="48.6698" lon="2.44895">
        <ele>127.51</ele>
        <time>2014-11-08T08:57:11Z</time>
      </trkpt>
      <trkpt lat="48.66989" lon="2.44886">
        <ele>126.55</ele>
        <time>2014-11-08T08:57:17Z</time>
      </trkpt>
      <trkpt lat="48.67009" lon="2.44868">
        <ele>128.47</ele>
        <time>2014-11-08T08:57:32Z</time>
      </trkpt>
      <trkpt lat="48.67019" lon="2.44861">
        <ele>131.84</ele>
        <time>2014-11-08T08:57:40Z</time>
      </trkpt>
      <trkpt lat="48.67024" lon="2.44857">
        <ele>131.36</ele>
        <time>2014-11-08T08:57:44Z</time>
      </trkpt>
      <trkpt lat="48.67028" lon="2.44854">
        <ele>130.88</ele>
        <time>2014-11-08T08:57:46Z</time>
      </trkpt>
      <trkpt lat="48.67047" lon="2.44836">
        <ele>129.43</ele>
        <time>2014-11-08T08:58:00Z</time>
      </trkpt>
      <trkpt lat="48.67064" lon="2.44813">
        <ele>124.15</ele>
        <time>2014-11-08T08:58:13Z</time>
      </trkpt>
      <trkpt lat="48.6707" lon="2.4481">
        <ele>123.19</ele>
        <time>2014-11-08T08:58:17Z</time>
      </trkpt>
      <trkpt lat="48.67082" lon="2.44795">
        <ele>119.82</ele>
        <time>2014-11-08T08:58:25Z</time>
      </trkpt>
      <trkpt lat="48.67104" lon="2.44773">
        <ele>121.74</ele>
        <time>2014-11-08T08:58:41Z</time>
      </trkpt>
      <trkpt lat="48.6713" lon="2.44746">
        <ele>122.71</ele>
        <time>2014-11-08T08:58:59Z</time>
      </trkpt>
      <trkpt lat="48.67155" lon="2.44717">
        <ele>118.38</ele>
        <time>2014-11-08T08:59:18Z</time>
      </trkpt>
      <trkpt lat="48.67175" lon="2.44698">
        <ele>117.9</ele>
        <time>2014-11-08T08:59:33Z</time>
      </trkpt>
      <trkpt lat="48.67193" lon="2.44678">
        <ele>116.94</ele>
        <time>2014-11-08T08:59:46Z</time>
      </trkpt>
      <trkpt lat="48.67194" lon="2.44675">
        <ele>116.94</ele>
        <time>2014-11-08T08:59:48Z</time>
      </trkpt>
      <trkpt lat="48.67213" lon="2.44655">
        <ele>117.9</ele>
        <time>2014-11-08T09:00:04Z</time>
      </trkpt>
      <trkpt lat="48.67229" lon="2.44641">
        <ele>127.99</ele>
        <time>2014-11-08T09:00:19Z</time>
      </trkpt>
      <trkpt lat="48.67247" lon="2.44627">
        <ele>140.01</ele>
        <time>2014-11-08T09:00:33Z</time>
      </trkpt>
      <trkpt lat="48.67263" lon="2.4462">
        <ele>151.06</ele>
        <time>2014-11-08T09:00:45Z</time>
      </trkpt>
      <trkpt lat="48.67283" lon="2.44599">
        <ele>152.51</ele>
        <time>2014-11-08T09:00:59Z</time>
      </trkpt>
      <trkpt lat="48.67299" lon="2.44581">
        <ele>150.1</ele>
        <time>2014-11-08T09:01:11Z</time>
      </trkpt>
      <trkpt lat="48.67317" lon="2.44558">
        <ele>147.22</ele>
        <time>2014-11-08T09:01:27Z</time>
      </trkpt>
      <trkpt lat="48.67331" lon="2.44542">
        <ele>141.93</ele>
        <time>2014-11-08T09:01:37Z</time>
      </trkpt>
      <trkpt lat="48.6735" lon="2.44528">
        <ele>139.05</ele>
        <time>2014-11-08T09:01:51Z</time>
      </trkpt>
      <trkpt lat="48.67359" lon="2.44516">
        <ele>136.64</ele>
        <time>2014-11-08T09:01:59Z</time>
      </trkpt>
      <trkpt lat="48.67374" lon="2.44498">
        <ele>134.72</ele>
        <time>2014-11-08T09:02:12Z</time>
      </trkpt>
      <trkpt lat="48.6738" lon="2.44495">
        <ele>134.24</ele>
        <time>2014-11-08T09:02:16Z</time>
      </trkpt>
      <trkpt lat="48.67388" lon="2.44495">
        <ele>132.8</ele>
        <time>2014-11-08T09:02:24Z</time>
      </trkpt>
      <trkpt lat="48.67397" lon="2.44507">
        <ele>121.26</ele>
        <time>2014-11-08T09:02:39Z</time>
      </trkpt>
      <trkpt lat="48.67404" lon="2.44525">
        <ele>114.05</ele>
        <time>2014-11-08T09:02:52Z</time>
      </trkpt>
      <trkpt lat="48.67409" lon="2.44552">
        <ele>107.81</ele>
        <time>2014-11-08T09:03:06Z</time>
      </trkpt>
      <trkpt lat="48.67412" lon="2.44575">
        <ele>104.92</ele>
        <time>2014-11-08T09:03:19Z</time>
      </trkpt>
      <trkpt lat="48.67423" lon="2.44613">
        <ele>104.44</ele>
        <time>2014-11-08T09:03:33Z</time>
      </trkpt>
      <trkpt lat="48.67435" lon="2.44655">
        <ele>100.6</ele>
        <time>2014-11-08T09:03:49Z</time>
      </trkpt>
      <trkpt lat="48.67442" lon="2.44684">
        <ele>98.67</ele>
        <time>2014-11-08T09:04:02Z</time>
      </trkpt>
      <trkpt lat="48.6745" lon="2.4471">
        <ele>99.15</ele>
        <time>2014-11-08T09:04:16Z</time>
      </trkpt>
      <trkpt lat="48.67456" lon="2.44741">
        <ele>98.19</ele>
        <time>2014-11-08T09:04:30Z</time>
      </trkpt>
      <trkpt lat="48.67466" lon="2.44774">
        <ele>98.19</ele>
        <time>2014-11-08T09:04:46Z</time>
      </trkpt>
      <trkpt lat="48.67473" lon="2.44808">
        <ele>96.27</ele>
        <time>2014-11-08T09:05:00Z</time>
      </trkpt>
      <trkpt lat="48.67482" lon="2.44841">
        <ele>94.83</ele>
        <time>2014-11-08T09:05:15Z</time>
      </trkpt>
      <trkpt lat="48.67489" lon="2.44874">
        <ele>94.35</ele>
        <time>2014-11-08T09:05:30Z</time>
      </trkpt>
      <trkpt lat="48.67498" lon="2.44912">
        <ele>94.83</ele>
        <time>2014-11-08T09:05:46Z</time>
      </trkpt>
      <trkpt lat="48.67506" lon="2.44945">
        <ele>98.19</ele>
        <time>2014-11-08T09:06:00Z</time>
      </trkpt>
      <trkpt lat="48.67514" lon="2.44973">
        <ele>97.23</ele>
        <time>2014-11-08T09:06:14Z</time>
      </trkpt>
      <trkpt lat="48.6752" lon="2.45001">
        <ele>96.27</ele>
        <time>2014-11-08T09:06:28Z</time>
      </trkpt>
      <trkpt lat="48.6753" lon="2.45038">
        <ele>95.79</ele>
        <time>2014-11-08T09:06:44Z</time>
      </trkpt>
      <trkpt lat="48.67538" lon="2.45072">
        <ele>95.31</ele>
        <time>2014-11-08T09:06:59Z</time>
      </trkpt>
      <trkpt lat="48.67545" lon="2.45106">
        <ele>96.27</ele>
        <time>2014-11-08T09:07:16Z</time>
      </trkpt>
      <trkpt lat="48.67553" lon="2.45142">
        <ele>95.31</ele>
        <time>2014-11-08T09:07:31Z</time>
      </trkpt>
      <trkpt lat="48.6756" lon="2.45169">
        <ele>94.35</ele>
        <time>2014-11-08T09:07:44Z</time>
      </trkpt>
      <trkpt lat="48.67571" lon="2.45209">
        <ele>94.35</ele>
        <time>2014-11-08T09:08:03Z</time>
      </trkpt>
      <trkpt lat="48.6758" lon="2.45248">
        <ele>97.71</ele>
        <time>2014-11-08T09:08:21Z</time>
      </trkpt>
      <trkpt lat="48.67591" lon="2.45282">
        <ele>101.08</ele>
        <time>2014-11-08T09:08:37Z</time>
      </trkpt>
      <trkpt lat="48.67604" lon="2.45324">
        <ele>100.11</ele>
        <time>2014-11-08T09:08:56Z</time>
      </trkpt>
      <trkpt lat="48.67617" lon="2.45366">
        <ele>100.11</ele>
        <time>2014-11-08T09:09:15Z</time>
      </trkpt>
      <trkpt lat="48.67623" lon="2.45392">
        <ele>99.15</ele>
        <time>2014-11-08T09:09:29Z</time>
      </trkpt>
      <trkpt lat="48.6763" lon="2.45415">
        <ele>101.08</ele>
        <time>2014-11-08T09:09:42Z</time>
      </trkpt>
      <trkpt lat="48.67637" lon="2.4544">
        <ele>104.92</ele>
        <time>2014-11-08T09:09:55Z</time>
      </trkpt>
      <trkpt lat="48.67645" lon="2.45469">
        <ele>103.48</ele>
        <time>2014-11-08T09:10:08Z</time>
      </trkpt>
      <trkpt lat="48.67651" lon="2.45497">
        <ele>100.11</ele>
        <time>2014-11-08T09:10:19Z</time>
      </trkpt>
      <trkpt lat="48.67656" lon="2.45508">
        <ele>100.11</ele>
        <time>2014-11-08T09:10:23Z</time>
      </trkpt>
      <trkpt lat="48.67666" lon="2.45541">
        <ele>99.63</ele>
        <time>2014-11-08T09:10:37Z</time>
      </trkpt>
      <trkpt lat="48.67676" lon="2.45579">
        <ele>99.15</ele>
        <time>2014-11-08T09:10:52Z</time>
      </trkpt>
      <trkpt lat="48.67688" lon="2.45617">
        <ele>95.31</ele>
        <time>2014-11-08T09:11:10Z</time>
      </trkpt>
      <trkpt lat="48.67697" lon="2.45647">
        <ele>94.83</ele>
        <time>2014-11-08T09:11:23Z</time>
      </trkpt>
      <trkpt lat="48.67706" lon="2.45682">
        <ele>93.39</ele>
        <time>2014-11-08T09:11:38Z</time>
      </trkpt>
      <trkpt lat="48.67716" lon="2.45718">
        <ele>93.87</ele>
        <time>2014-11-08T09:11:54Z</time>
      </trkpt>
      <trkpt lat="48.6772" lon="2.45729">
        <ele>93.39</ele>
        <time>2014-11-08T09:11:59Z</time>
      </trkpt>
      <trkpt lat="48.67723" lon="2.45741">
        <ele>92.42</ele>
        <time>2014-11-08T09:12:06Z</time>
      </trkpt>
      <trkpt lat="48.67735" lon="2.45767">
        <ele>91.46</ele>
        <time>2014-11-08T09:12:20Z</time>
      </trkpt>
      <trkpt lat="48.6775" lon="2.45803">
        <ele>93.39</ele>
        <time>2014-11-08T09:12:36Z</time>
      </trkpt>
      <trkpt lat="48.67751" lon="2.45805">
        <ele>93.87</ele>
        <time>2014-11-08T09:12:37Z</time>
      </trkpt>
      <trkpt lat="48.67749" lon="2.45813">
        <ele>94.35</ele>
        <time>2014-11-08T09:12:41Z</time>
      </trkpt>
      <trkpt lat="48.67748" lon="2.45815">
        <ele>94.35</ele>
        <time>2014-11-08T09:12:43Z</time>
      </trkpt>
      <trkpt lat="48.67737" lon="2.45828">
        <ele>93.87</ele>
        <time>2014-11-08T09:12:56Z</time>
      </trkpt>
      <trkpt lat="48.67714" lon="2.45833">
        <ele>97.23</ele>
        <time>2014-11-08T09:13:13Z</time>
      </trkpt>
      <trkpt lat="48.6769" lon="2.45847">
        <ele>99.15</ele>
        <time>2014-11-08T09:13:28Z</time>
      </trkpt>
      <trkpt lat="48.67671" lon="2.45863">
        <ele>100.6</ele>
        <time>2014-11-08T09:13:42Z</time>
      </trkpt>
      <trkpt lat="48.67667" lon="2.45867">
        <ele>101.56</ele>
        <time>2014-11-08T09:13:46Z</time>
      </trkpt>
      <trkpt lat="48.67649" lon="2.45877">
        <ele>104.44</ele>
        <time>2014-11-08T09:13:59Z</time>
      </trkpt>
      <trkpt lat="48.67632" lon="2.45895">
        <ele>103.96</ele>
        <time>2014-11-08T09:14:12Z</time>
      </trkpt>
      <trkpt lat="48.67614" lon="2.45914">
        <ele>104.92</ele>
        <time>2014-11-08T09:14:26Z</time>
      </trkpt>
      <trkpt lat="48.67605" lon="2.45923">
        <ele>104.92</ele>
        <time>2014-11-08T09:14:32Z</time>
      </trkpt>
      <trkpt lat="48.67598" lon="2.45932">
        <ele>103.96</ele>
        <time>2014-11-08T09:14:36Z</time>
      </trkpt>
      <trkpt lat="48.67579" lon="2.4595">
        <ele>104.44</ele>
        <time>2014-11-08T09:14:51Z</time>
      </trkpt>
      <trkpt lat="48.67572" lon="2.45956">
        <ele>104.92</ele>
        <time>2014-11-08T09:14:56Z</time>
      </trkpt>
      <trkpt lat="48.67552" lon="2.45975">
        <ele>107.81</ele>
        <time>2014-11-08T09:15:10Z</time>
      </trkpt>
      <trkpt lat="48.67532" lon="2.4599">
        <ele>109.73</ele>
        <time>2014-11-08T09:15:25Z</time>
      </trkpt>
      <trkpt lat="48.6751" lon="2.46017">
        <ele>107.32</ele>
        <time>2014-11-08T09:15:41Z</time>
      </trkpt>
      <trkpt lat="48.67487" lon="2.4604">
        <ele>105.88</ele>
        <time>2014-11-08T09:15:57Z</time>
      </trkpt>
      <trkpt lat="48.67484" lon="2.46043">
        <ele>105.4</ele>
        <time>2014-11-08T09:15:59Z</time>
      </trkpt>
      <trkpt lat="48.67477" lon="2.46053">
        <ele>104.92</ele>
        <time>2014-11-08T09:16:06Z</time>
      </trkpt>
      <trkpt lat="48.67468" lon="2.46058">
        <ele>106.36</ele>
        <time>2014-11-08T09:16:11Z</time>
      </trkpt>
      <trkpt lat="48.67454" lon="2.4607">
        <ele>106.36</ele>
        <time>2014-11-08T09:16:21Z</time>
      </trkpt>
      <trkpt lat="48.6745" lon="2.46072">
        <ele>106.84</ele>
        <time>2014-11-08T09:16:23Z</time>
      </trkpt>
      <trkpt lat="48.67438" lon="2.46087">
        <ele>107.32</ele>
        <time>2014-11-08T09:16:34Z</time>
      </trkpt>
      <trkpt lat="48.67419" lon="2.46102">
        <ele>109.25</ele>
        <time>2014-11-08T09:16:48Z</time>
      </trkpt>
      <trkpt lat="48.67399" lon="2.4612">
        <ele>110.69</ele>
        <time>2014-11-08T09:17:03Z</time>
      </trkpt>
      <trkpt lat="48.6738" lon="2.46139">
        <ele>110.21</ele>
        <time>2014-11-08T09:17:17Z</time>
      </trkpt>
      <trkpt lat="48.67375" lon="2.46144">
        <ele>111.17</ele>
        <time>2014-11-08T09:17:21Z</time>
      </trkpt>
      <trkpt lat="48.67357" lon="2.46157">
        <ele>112.13</ele>
        <time>2014-11-08T09:17:34Z</time>
      </trkpt>
      <trkpt lat="48.67338" lon="2.46178">
        <ele>110.69</ele>
        <time>2014-11-08T09:17:47Z</time>
      </trkpt>
      <trkpt lat="48.67322" lon="2.46195">
        <ele>109.25</ele>
        <time>2014-11-08T09:17:59Z</time>
      </trkpt>
      <trkpt lat="48.67314" lon="2.46207">
        <ele>108.29</ele>
        <time>2014-11-08T09:18:06Z</time>
      </trkpt>
      <trkpt lat="48.67296" lon="2.46224">
        <ele>108.29</ele>
        <time>2014-11-08T09:18:20Z</time>
      </trkpt>
      <trkpt lat="48.67284" lon="2.46243">
        <ele>106.84</ele>
        <time>2014-11-08T09:18:33Z</time>
      </trkpt>
      <trkpt lat="48.67284" lon="2.46251">
        <ele>103.96</ele>
        <time>2014-11-08T09:18:50Z</time>
      </trkpt>
      <trkpt lat="48.67286" lon="2.46253">
        <ele>102.52</ele>
        <time>2014-11-08T09:19:14Z</time>
      </trkpt>
      <trkpt lat="48.67284" lon="2.46255">
        <ele>101.56</ele>
        <time>2014-11-08T09:19:32Z</time>
      </trkpt>
      <trkpt lat="48.67284" lon="2.46256">
        <ele>102.04</ele>
        <time>2014-11-08T09:19:54Z</time>
      </trkpt>
      <trkpt lat="48.67282" lon="2.46257">
        <ele>102.04</ele>
        <time>2014-11-08T09:20:15Z</time>
      </trkpt>
      <trkpt lat="48.67282" lon="2.46256">
        <ele>100.6</ele>
        <time>2014-11-08T09:20:39Z</time>
      </trkpt>
      <trkpt lat="48.67281" lon="2.46256">
        <ele>98.67</ele>
        <time>2014-11-08T09:20:59Z</time>
      </trkpt>
      <trkpt lat="48.67281" lon="2.46255">
        <ele>98.19</ele>
        <time>2014-11-08T09:21:18Z</time>
      </trkpt>
      <trkpt lat="48.67281" lon="2.46255">
        <ele>97.23</ele>
        <time>2014-11-08T09:21:36Z</time>
      </trkpt>
      <trkpt lat="48.67281" lon="2.46256">
        <ele>97.23</ele>
        <time>2014-11-08T09:21:50Z</time>
      </trkpt>
      <trkpt lat="48.67281" lon="2.46255">
        <ele>95.31</ele>
        <time>2014-11-08T09:22:15Z</time>
      </trkpt>
      <trkpt lat="48.67281" lon="2.46255">
        <ele>94.83</ele>
        <time>2014-11-08T09:22:38Z</time>
      </trkpt>
      <trkpt lat="48.67278" lon="2.46257">
        <ele>95.31</ele>
        <time>2014-11-08T09:22:41Z</time>
      </trkpt>
      <trkpt lat="48.67267" lon="2.46264">
        <ele>96.75</ele>
        <time>2014-11-08T09:22:50Z</time>
      </trkpt>
      <trkpt lat="48.67264" lon="2.46272">
        <ele>97.23</ele>
        <time>2014-11-08T09:22:55Z</time>
      </trkpt>
      <trkpt lat="48.67268" lon="2.46309">
        <ele>98.19</ele>
        <time>2014-11-08T09:23:10Z</time>
      </trkpt>
      <trkpt lat="48.6727" lon="2.46319">
        <ele>99.63</ele>
        <time>2014-11-08T09:23:15Z</time>
      </trkpt>
      <trkpt lat="48.67278" lon="2.46349">
        <ele>103.96</ele>
        <time>2014-11-08T09:23:29Z</time>
      </trkpt>
      <trkpt lat="48.67285" lon="2.46376">
        <ele>106.84</ele>
        <time>2014-11-08T09:23:41Z</time>
      </trkpt>
      <trkpt lat="48.67293" lon="2.46405">
        <ele>106.84</ele>
        <time>2014-11-08T09:23:54Z</time>
      </trkpt>
      <trkpt lat="48.673" lon="2.46429">
        <ele>105.88</ele>
        <time>2014-11-08T09:24:07Z</time>
      </trkpt>
      <trkpt lat="48.67309" lon="2.46462">
        <ele>104.92</ele>
        <time>2014-11-08T09:24:23Z</time>
      </trkpt>
      <trkpt lat="48.67317" lon="2.46496">
        <ele>103.48</ele>
        <time>2014-11-08T09:24:38Z</time>
      </trkpt>
      <trkpt lat="48.67322" lon="2.46517">
        <ele>101.08</ele>
        <time>2014-11-08T09:24:47Z</time>
      </trkpt>
      <trkpt lat="48.67334" lon="2.46555">
        <ele>100.11</ele>
        <time>2014-11-08T09:25:05Z</time>
      </trkpt>
      <trkpt lat="48.67345" lon="2.46589">
        <ele>99.15</ele>
        <time>2014-11-08T09:25:21Z</time>
      </trkpt>
      <trkpt lat="48.67353" lon="2.4662">
        <ele>98.67</ele>
        <time>2014-11-08T09:25:36Z</time>
      </trkpt>
      <trkpt lat="48.67363" lon="2.46661">
        <ele>99.63</ele>
        <time>2014-11-08T09:25:53Z</time>
      </trkpt>
      <trkpt lat="48.67371" lon="2.46695">
        <ele>99.63</ele>
        <time>2014-11-08T09:26:09Z</time>
      </trkpt>
      <trkpt lat="48.67383" lon="2.46731">
        <ele>100.6</ele>
        <time>2014-11-08T09:26:25Z</time>
      </trkpt>
      <trkpt lat="48.67391" lon="2.46759">
        <ele>96.75</ele>
        <time>2014-11-08T09:26:39Z</time>
      </trkpt>
      <trkpt lat="48.67401" lon="2.46791">
        <ele>96.75</ele>
        <time>2014-11-08T09:26:55Z</time>
      </trkpt>
      <trkpt lat="48.6741" lon="2.46824">
        <ele>95.79</ele>
        <time>2014-11-08T09:27:10Z</time>
      </trkpt>
      <trkpt lat="48.67418" lon="2.4686">
        <ele>91.94</ele>
        <time>2014-11-08T09:27:27Z</time>
      </trkpt>
      <trkpt lat="48.67427" lon="2.46894">
        <ele>91.94</ele>
        <time>2014-11-08T09:27:42Z</time>
      </trkpt>
      <trkpt lat="48.67437" lon="2.46933">
        <ele>89.54</ele>
        <time>2014-11-08T09:27:59Z</time>
      </trkpt>
      <trkpt lat="48.67434" lon="2.46968">
        <ele>89.54</ele>
        <time>2014-11-08T09:28:15Z</time>
      </trkpt>
      <trkpt lat="48.67416" lon="2.46984">
        <ele>90.5</ele>
        <time>2014-11-08T09:28:29Z</time>
      </trkpt>
      <trkpt lat="48.67406" lon="2.46997">
        <ele>90.98</ele>
        <time>2014-11-08T09:28:41Z</time>
      </trkpt>
      <trkpt lat="48.67386" lon="2.47015">
        <ele>92.9</ele>
        <time>2014-11-08T09:28:55Z</time>
      </trkpt>
      <trkpt lat="48.67373" lon="2.47025">
        <ele>93.87</ele>
        <time>2014-11-08T09:29:03Z</time>
      </trkpt>
      <trkpt lat="48.6735" lon="2.47046">
        <ele>95.79</ele>
        <time>2014-11-08T09:29:20Z</time>
      </trkpt>
      <trkpt lat="48.6733" lon="2.47064">
        <ele>99.15</ele>
        <time>2014-11-08T09:29:34Z</time>
      </trkpt>
      <trkpt lat="48.67318" lon="2.47075">
        <ele>100.6</ele>
        <time>2014-11-08T09:29:42Z</time>
      </trkpt>
      <trkpt lat="48.67314" lon="2.47081">
        <ele>100.11</ele>
        <time>2014-11-08T09:29:47Z</time>
      </trkpt>
      <trkpt lat="48.67309" lon="2.47084">
        <ele>99.15</ele>
        <time>2014-11-08T09:29:51Z</time>
      </trkpt>
      <trkpt lat="48.67288" lon="2.47105">
        <ele>99.15</ele>
        <time>2014-11-08T09:30:08Z</time>
      </trkpt>
      <trkpt lat="48.67271" lon="2.47129">
        <ele>102.52</ele>
        <time>2014-11-08T09:30:21Z</time>
      </trkpt>
      <trkpt lat="48.67255" lon="2.47158">
        <ele>104.92</ele>
        <time>2014-11-08T09:30:36Z</time>
      </trkpt>
      <trkpt lat="48.6724" lon="2.47176">
        <ele>104.44</ele>
        <time>2014-11-08T09:30:49Z</time>
      </trkpt>
      <trkpt lat="48.67217" lon="2.47195">
        <ele>106.84</ele>
        <time>2014-11-08T09:31:05Z</time>
      </trkpt>
      <trkpt lat="48.67199" lon="2.47211">
        <ele>110.21</ele>
        <time>2014-11-08T09:31:19Z</time>
      </trkpt>
      <trkpt lat="48.67183" lon="2.47225">
        <ele>111.17</ele>
        <time>2014-11-08T09:31:29Z</time>
      </trkpt>
      <trkpt lat="48.6718" lon="2.47233">
        <ele>111.17</ele>
        <time>2014-11-08T09:31:33Z</time>
      </trkpt>
      <trkpt lat="48.67163" lon="2.47249">
        <ele>110.69</ele>
        <time>2014-11-08T09:31:45Z</time>
      </trkpt>
      <trkpt lat="48.67143" lon="2.47276">
        <ele>109.73</ele>
        <time>2014-11-08T09:32:01Z</time>
      </trkpt>
      <trkpt lat="48.67121" lon="2.47295">
        <ele>112.61</ele>
        <time>2014-11-08T09:32:16Z</time>
      </trkpt>
      <trkpt lat="48.67115" lon="2.47299">
        <ele>113.09</ele>
        <time>2014-11-08T09:32:19Z</time>
      </trkpt>
      <trkpt lat="48.67094" lon="2.47317">
        <ele>115.5</ele>
        <time>2014-11-08T09:32:34Z</time>
      </trkpt>
      <trkpt lat="48.6707" lon="2.47335">
        <ele>116.46</ele>
        <time>2014-11-08T09:32:50Z</time>
      </trkpt>
      <trkpt lat="48.6705" lon="2.4736">
        <ele>113.09</ele>
        <time>2014-11-08T09:33:05Z</time>
      </trkpt>
      <trkpt lat="48.67044" lon="2.47366">
        <ele>112.13</ele>
        <time>2014-11-08T09:33:09Z</time>
      </trkpt>
      <trkpt lat="48.67036" lon="2.47372">
        <ele>111.65</ele>
        <time>2014-11-08T09:33:15Z</time>
      </trkpt>
      <trkpt lat="48.67032" lon="2.47381">
        <ele>111.17</ele>
        <time>2014-11-08T09:33:19Z</time>
      </trkpt>
      <trkpt lat="48.67013" lon="2.47398">
        <ele>109.73</ele>
        <time>2014-11-08T09:33:32Z</time>
      </trkpt>
      <trkpt lat="48.67008" lon="2.47406">
        <ele>107.81</ele>
        <time>2014-11-08T09:33:37Z</time>
      </trkpt>
      <trkpt lat="48.66996" lon="2.4742">
        <ele>106.36</ele>
        <time>2014-11-08T09:33:48Z</time>
      </trkpt>
      <trkpt lat="48.66977" lon="2.4744">
        <ele>105.88</ele>
        <time>2014-11-08T09:34:03Z</time>
      </trkpt>
      <trkpt lat="48.66962" lon="2.47458">
        <ele>109.25</ele>
        <time>2014-11-08T09:34:15Z</time>
      </trkpt>
      <trkpt lat="48.66955" lon="2.47465">
        <ele>110.21</ele>
        <time>2014-11-08T09:34:20Z</time>
      </trkpt>
      <trkpt lat="48.66926" lon="2.47492">
        <ele>113.09</ele>
        <time>2014-11-08T09:34:38Z</time>
      </trkpt>
      <trkpt lat="48.66923" lon="2.47495">
        <ele>113.57</ele>
        <time>2014-11-08T09:34:40Z</time>
      </trkpt>
      <trkpt lat="48.66914" lon="2.47505">
        <ele>113.09</ele>
        <time>2014-11-08T09:34:47Z</time>
      </trkpt>
      <trkpt lat="48.66895" lon="2.47525">
        <ele>113.09</ele>
        <time>2014-11-08T09:35:02Z</time>
      </trkpt>
      <trkpt lat="48.66877" lon="2.47547">
        <ele>115.5</ele>
        <time>2014-11-08T09:35:15Z</time>
      </trkpt>
      <trkpt lat="48.66856" lon="2.47564">
        <ele>118.38</ele>
        <time>2014-11-08T09:35:28Z</time>
      </trkpt>
      <trkpt lat="48.6685" lon="2.4757">
        <ele>119.82</ele>
        <time>2014-11-08T09:35:32Z</time>
      </trkpt>
      <trkpt lat="48.66837" lon="2.47585">
        <ele>116.94</ele>
        <time>2014-11-08T09:35:43Z</time>
      </trkpt>
      <trkpt lat="48.66818" lon="2.47604">
        <ele>111.17</ele>
        <time>2014-11-08T09:35:57Z</time>
      </trkpt>
      <trkpt lat="48.66802" lon="2.47625">
        <ele>106.84</ele>
        <time>2014-11-08T09:36:10Z</time>
      </trkpt>
      <trkpt lat="48.66786" lon="2.47645">
        <ele>104.92</ele>
        <time>2014-11-08T09:36:25Z</time>
      </trkpt>
      <trkpt lat="48.66764" lon="2.47663">
        <ele>104.92</ele>
        <time>2014-11-08T09:36:41Z</time>
      </trkpt>
      <trkpt lat="48.66758" lon="2.47669">
        <ele>104.92</ele>
        <time>2014-11-08T09:36:47Z</time>
      </trkpt>
      <trkpt lat="48.66756" lon="2.47674">
        <ele>104.44</ele>
        <time>2014-11-08T09:36:50Z</time>
      </trkpt>
      <trkpt lat="48.66748" lon="2.47696">
        <ele>102.04</ele>
        <time>2014-11-08T09:37:02Z</time>
      </trkpt>
      <trkpt lat="48.66729" lon="2.4771">
        <ele>101.56</ele>
        <time>2014-11-08T09:37:16Z</time>
      </trkpt>
      <trkpt lat="48.66713" lon="2.47721">
        <ele>101.08</ele>
        <time>2014-11-08T09:37:27Z</time>
      </trkpt>
      <trkpt lat="48.66703" lon="2.47734">
        <ele>101.56</ele>
        <time>2014-11-08T09:37:37Z</time>
      </trkpt>
      <trkpt lat="48.66684" lon="2.47752">
        <ele>103.48</ele>
        <time>2014-11-08T09:37:52Z</time>
      </trkpt>
      <trkpt lat="48.66679" lon="2.47754">
        <ele>103.48</ele>
        <time>2014-11-08T09:37:55Z</time>
      </trkpt>
      <trkpt lat="48.66658" lon="2.47775">
        <ele>101.08</ele>
        <time>2014-11-08T09:38:11Z</time>
      </trkpt>
      <trkpt lat="48.66656" lon="2.47776">
        <ele>101.08</ele>
        <time>2014-11-08T09:38:12Z</time>
      </trkpt>
      <trkpt lat="48.66631" lon="2.47802">
        <ele>99.15</ele>
        <time>2014-11-08T09:38:31Z</time>
      </trkpt>
      <trkpt lat="48.66629" lon="2.47805">
        <ele>98.67</ele>
        <time>2014-11-08T09:38:33Z</time>
      </trkpt>
      <trkpt lat="48.66624" lon="2.47811">
        <ele>97.71</ele>
        <time>2014-11-08T09:38:37Z</time>
      </trkpt>
      <trkpt lat="48.6661" lon="2.47824">
        <ele>96.75</ele>
        <time>2014-11-08T09:38:47Z</time>
      </trkpt>
      <trkpt lat="48.66591" lon="2.47845">
        <ele>98.67</ele>
        <time>2014-11-08T09:39:03Z</time>
      </trkpt>
      <trkpt lat="48.66569" lon="2.47869">
        <ele>98.19</ele>
        <time>2014-11-08T09:39:20Z</time>
      </trkpt>
      <trkpt lat="48.66565" lon="2.47894">
        <ele>93.87</ele>
        <time>2014-11-08T09:39:38Z</time>
      </trkpt>
      <trkpt lat="48.66569" lon="2.47899">
        <ele>90.02</ele>
        <time>2014-11-08T09:39:56Z</time>
      </trkpt>
      <trkpt lat="48.66567" lon="2.47898">
        <ele>89.06</ele>
        <time>2014-11-08T09:40:17Z</time>
      </trkpt>
      <trkpt lat="48.66567" lon="2.47899">
        <ele>87.62</ele>
        <time>2014-11-08T09:40:32Z</time>
      </trkpt>
      <trkpt lat="48.66567" lon="2.479">
        <ele>87.62</ele>
        <time>2014-11-08T09:40:49Z</time>
      </trkpt>
      <trkpt lat="48.66566" lon="2.47901">
        <ele>87.14</ele>
        <time>2014-11-08T09:41:03Z</time>
      </trkpt>
      <trkpt lat="48.66566" lon="2.47902">
        <ele>85.69</ele>
        <time>2014-11-08T09:41:24Z</time>
      </trkpt>
      <trkpt lat="48.66567" lon="2.47902">
        <ele>84.73</ele>
        <time>2014-11-08T09:41:46Z</time>
      </trkpt>
      <trkpt lat="48.66566" lon="2.47901">
        <ele>84.25</ele>
        <time>2014-11-08T09:42:08Z</time>
      </trkpt>
      <trkpt lat="48.66554" lon="2.47907">
        <ele>83.29</ele>
        <time>2014-11-08T09:42:19Z</time>
      </trkpt>
      <trkpt lat="48.66533" lon="2.47928">
        <ele>83.29</ele>
        <time>2014-11-08T09:42:36Z</time>
      </trkpt>
      <trkpt lat="48.66515" lon="2.47947">
        <ele>84.73</ele>
        <time>2014-11-08T09:42:53Z</time>
      </trkpt>
      <trkpt lat="48.66511" lon="2.47952">
        <ele>86.18</ele>
        <time>2014-11-08T09:42:57Z</time>
      </trkpt>
      <trkpt lat="48.66482" lon="2.47975">
        <ele>88.1</ele>
        <time>2014-11-08T09:43:16Z</time>
      </trkpt>
      <trkpt lat="48.66461" lon="2.47991">
        <ele>91.94</ele>
        <time>2014-11-08T09:43:33Z</time>
      </trkpt>
      <trkpt lat="48.6645" lon="2.48009">
        <ele>91.94</ele>
        <time>2014-11-08T09:43:45Z</time>
      </trkpt>
      <trkpt lat="48.66431" lon="2.4803">
        <ele>95.31</ele>
        <time>2014-11-08T09:44:02Z</time>
      </trkpt>
      <trkpt lat="48.66428" lon="2.48032">
        <ele>96.27</ele>
        <time>2014-11-08T09:44:05Z</time>
      </trkpt>
      <trkpt lat="48.66408" lon="2.48051">
        <ele>99.63</ele>
        <time>2014-11-08T09:44:22Z</time>
      </trkpt>
      <trkpt lat="48.66388" lon="2.48073">
        <ele>100.11</ele>
        <time>2014-11-08T09:44:38Z</time>
      </trkpt>
      <trkpt lat="48.66365" lon="2.48094">
        <ele>100.11</ele>
        <time>2014-11-08T09:44:54Z</time>
      </trkpt>
      <trkpt lat="48.66344" lon="2.48112">
        <ele>104.44</ele>
        <time>2014-11-08T09:45:09Z</time>
      </trkpt>
      <trkpt lat="48.66314" lon="2.48128">
        <ele>106.84</ele>
        <time>2014-11-08T09:45:24Z</time>
      </trkpt>
      <trkpt lat="48.66313" lon="2.4813">
        <ele>107.32</ele>
        <time>2014-11-08T09:45:25Z</time>
      </trkpt>
      <trkpt lat="48.66295" lon="2.48147">
        <ele>106.84</ele>
        <time>2014-11-08T09:45:38Z</time>
      </trkpt>
      <trkpt lat="48.66277" lon="2.48167">
        <ele>105.88</ele>
        <time>2014-11-08T09:45:52Z</time>
      </trkpt>
      <trkpt lat="48.66264" lon="2.48182">
        <ele>105.4</ele>
        <time>2014-11-08T09:46:05Z</time>
      </trkpt>
      <trkpt lat="48.66252" lon="2.48202">
        <ele>110.21</ele>
        <time>2014-11-08T09:46:18Z</time>
      </trkpt>
      <trkpt lat="48.66245" lon="2.48213">
        <ele>109.73</ele>
        <time>2014-11-08T09:46:24Z</time>
      </trkpt>
      <trkpt lat="48.66243" lon="2.48219">
        <ele>108.77</ele>
        <time>2014-11-08T09:46:27Z</time>
      </trkpt>
      <trkpt lat="48.66237" lon="2.48226">
        <ele>108.29</ele>
        <time>2014-11-08T09:46:32Z</time>
      </trkpt>
      <trkpt lat="48.66222" lon="2.48245">
        <ele>106.84</ele>
        <time>2014-11-08T09:46:46Z</time>
      </trkpt>
      <trkpt lat="48.66219" lon="2.48248">
        <ele>106.84</ele>
        <time>2014-11-08T09:46:49Z</time>
      </trkpt>
      <trkpt lat="48.66203" lon="2.48257">
        <ele>105.4</ele>
        <time>2014-11-08T09:47:01Z</time>
      </trkpt>
      <trkpt lat="48.66196" lon="2.48268">
        <ele>103.96</ele>
        <time>2014-11-08T09:47:09Z</time>
      </trkpt>
      <trkpt lat="48.66188" lon="2.48275">
        <ele>101.08</ele>
        <time>2014-11-08T09:47:20Z</time>
      </trkpt>
      <trkpt lat="48.66181" lon="2.48267">
        <ele>101.08</ele>
        <time>2014-11-08T09:47:25Z</time>
      </trkpt>
      <trkpt lat="48.66179" lon="2.48255">
        <ele>102.04</ele>
        <time>2014-11-08T09:47:33Z</time>
      </trkpt>
      <trkpt lat="48.66169" lon="2.48233">
        <ele>103.48</ele>
        <time>2014-11-08T09:47:44Z</time>
      </trkpt>
      <trkpt lat="48.66168" lon="2.4822">
        <ele>104.44</ele>
        <time>2014-11-08T09:47:50Z</time>
      </trkpt>
      <trkpt lat="48.6616" lon="2.48196">
        <ele>104.44</ele>
        <time>2014-11-08T09:48:02Z</time>
      </trkpt>
      <trkpt lat="48.66159" lon="2.48187">
        <ele>104.44</ele>
        <time>2014-11-08T09:48:05Z</time>
      </trkpt>
      <trkpt lat="48.66157" lon="2.48175">
        <ele>105.4</ele>
        <time>2014-11-08T09:48:10Z</time>
      </trkpt>
      <trkpt lat="48.6615" lon="2.48144">
        <ele>109.73</ele>
        <time>2014-11-08T09:48:25Z</time>
      </trkpt>
      <trkpt lat="48.66144" lon="2.48126">
        <ele>114.05</ele>
        <time>2014-11-08T09:48:36Z</time>
      </trkpt>
      <trkpt lat="48.66141" lon="2.48102">
        <ele>119.34</ele>
        <time>2014-11-08T09:48:47Z</time>
      </trkpt>
      <trkpt lat="48.66141" lon="2.48093">
        <ele>120.78</ele>
        <time>2014-11-08T09:48:51Z</time>
      </trkpt>
      <trkpt lat="48.66139" lon="2.48083">
        <ele>119.82</ele>
        <time>2014-11-08T09:48:55Z</time>
      </trkpt>
      <trkpt lat="48.66137" lon="2.48069">
        <ele>119.82</ele>
        <time>2014-11-08T09:49:01Z</time>
      </trkpt>
      <trkpt lat="48.66132" lon="2.48047">
        <ele>118.86</ele>
        <time>2014-11-08T09:49:12Z</time>
      </trkpt>
      <trkpt lat="48.66118" lon="2.48012">
        <ele>116.46</ele>
        <time>2014-11-08T09:49:28Z</time>
      </trkpt>
      <trkpt lat="48.66114" lon="2.47986">
        <ele>118.86</ele>
        <time>2014-11-08T09:49:38Z</time>
      </trkpt>
      <trkpt lat="48.6611" lon="2.47962">
        <ele>124.15</ele>
        <time>2014-11-08T09:49:49Z</time>
      </trkpt>
      <trkpt lat="48.66101" lon="2.47938">
        <ele>122.71</ele>
        <time>2014-11-08T09:50:01Z</time>
      </trkpt>
      <trkpt lat="48.661" lon="2.47932">
        <ele>122.71</ele>
        <time>2014-11-08T09:50:04Z</time>
      </trkpt>
      <trkpt lat="48.66092" lon="2.47902">
        <ele>121.74</ele>
        <time>2014-11-08T09:50:18Z</time>
      </trkpt>
      <trkpt lat="48.66088" lon="2.47884">
        <ele>120.78</ele>
        <time>2014-11-08T09:50:25Z</time>
      </trkpt>
      <trkpt lat="48.66085" lon="2.47852">
        <ele>119.34</ele>
        <time>2014-11-08T09:50:37Z</time>
      </trkpt>
      <trkpt lat="48.66085" lon="2.47847">
        <ele>119.34</ele>
        <time>2014-11-08T09:50:39Z</time>
      </trkpt>
      <trkpt lat="48.66084" lon="2.47842">
        <ele>118.86</ele>
        <time>2014-11-08T09:50:41Z</time>
      </trkpt>
      <trkpt lat="48.66076" lon="2.47829">
        <ele>117.9</ele>
        <time>2014-11-08T09:50:48Z</time>
      </trkpt>
      <trkpt lat="48.6607" lon="2.47813">
        <ele>116.46</ele>
        <time>2014-11-08T09:50:55Z</time>
      </trkpt>
      <trkpt lat="48.66066" lon="2.47804">
        <ele>116.46</ele>
        <time>2014-11-08T09:50:59Z</time>
      </trkpt>
      <trkpt lat="48.6606" lon="2.4779">
        <ele>114.05</ele>
        <time>2014-11-08T09:51:04Z</time>
      </trkpt>
      <trkpt lat="48.66057" lon="2.47773">
        <ele>113.09</ele>
        <time>2014-11-08T09:51:11Z</time>
      </trkpt>
      <trkpt lat="48.66056" lon="2.47765">
        <ele>115.01</ele>
        <time>2014-11-08T09:51:17Z</time>
      </trkpt>
      <trkpt lat="48.66052" lon="2.47733">
        <ele>114.05</ele>
        <time>2014-11-08T09:51:30Z</time>
      </trkpt>
      <trkpt lat="48.66051" lon="2.47731">
        <ele>114.05</ele>
        <time>2014-11-08T09:51:31Z</time>
      </trkpt>
      <trkpt lat="48.66048" lon="2.47712">
        <ele>113.57</ele>
        <time>2014-11-08T09:51:40Z</time>
      </trkpt>
      <trkpt lat="48.66047" lon="2.47702">
        <ele>114.05</ele>
        <time>2014-11-08T09:51:44Z</time>
      </trkpt>
      <trkpt lat="48.6604" lon="2.47673">
        <ele>113.09</ele>
        <time>2014-11-08T09:51:58Z</time>
      </trkpt>
      <trkpt lat="48.66039" lon="2.47668">
        <ele>113.09</ele>
        <time>2014-11-08T09:52:01Z</time>
      </trkpt>
      <trkpt lat="48.66034" lon="2.47653">
        <ele>112.61</ele>
        <time>2014-11-08T09:52:08Z</time>
      </trkpt>
      <trkpt lat="48.6603" lon="2.47647">
        <ele>111.65</ele>
        <time>2014-11-08T09:52:11Z</time>
      </trkpt>
      <trkpt lat="48.66023" lon="2.47627">
        <ele>112.13</ele>
        <time>2014-11-08T09:52:21Z</time>
      </trkpt>
      <trkpt lat="48.66022" lon="2.47623">
        <ele>112.13</ele>
        <time>2014-11-08T09:52:23Z</time>
      </trkpt>
      <trkpt lat="48.66014" lon="2.47595">
        <ele>112.61</ele>
        <time>2014-11-08T09:52:35Z</time>
      </trkpt>
      <trkpt lat="48.6601" lon="2.47585">
        <ele>112.13</ele>
        <time>2014-11-08T09:52:40Z</time>
      </trkpt>
      <trkpt lat="48.66005" lon="2.4757">
        <ele>111.65</ele>
        <time>2014-11-08T09:52:46Z</time>
      </trkpt>
      <trkpt lat="48.66002" lon="2.47548">
        <ele>115.98</ele>
        <time>2014-11-08T09:52:58Z</time>
      </trkpt>
      <trkpt lat="48.65989" lon="2.47544">
        <ele>115.5</ele>
        <time>2014-11-08T09:53:11Z</time>
      </trkpt>
      <trkpt lat="48.65983" lon="2.47543">
        <ele>112.61</ele>
        <time>2014-11-08T09:53:28Z</time>
      </trkpt>
      <trkpt lat="48.65981" lon="2.47541">
        <ele>109.25</ele>
        <time>2014-11-08T09:53:51Z</time>
      </trkpt>
      <trkpt lat="48.6598" lon="2.4754">
        <ele>106.84</ele>
        <time>2014-11-08T09:54:12Z</time>
      </trkpt>
      <trkpt lat="48.6598" lon="2.47536">
        <ele>106.36</ele>
        <time>2014-11-08T09:54:19Z</time>
      </trkpt>
      <trkpt lat="48.65979" lon="2.47533">
        <ele>106.36</ele>
        <time>2014-11-08T09:54:21Z</time>
      </trkpt>
      <trkpt lat="48.65976" lon="2.4752">
        <ele>106.84</ele>
        <time>2014-11-08T09:54:28Z</time>
      </trkpt>
      <trkpt lat="48.65975" lon="2.47492">
        <ele>114.05</ele>
        <time>2014-11-08T09:54:42Z</time>
      </trkpt>
      <trkpt lat="48.65974" lon="2.47475">
        <ele>118.86</ele>
        <time>2014-11-08T09:54:49Z</time>
      </trkpt>
      <trkpt lat="48.65968" lon="2.47438">
        <ele>118.38</ele>
        <time>2014-11-08T09:55:03Z</time>
      </trkpt>
      <trkpt lat="48.65967" lon="2.47436">
        <ele>118.38</ele>
        <time>2014-11-08T09:55:04Z</time>
      </trkpt>
      <trkpt lat="48.65966" lon="2.47427">
        <ele>117.9</ele>
        <time>2014-11-08T09:55:09Z</time>
      </trkpt>
      <trkpt lat="48.65963" lon="2.47418">
        <ele>117.42</ele>
        <time>2014-11-08T09:55:13Z</time>
      </trkpt>
      <trkpt lat="48.65961" lon="2.47415">
        <ele>117.42</ele>
        <time>2014-11-08T09:55:15Z</time>
      </trkpt>
      <trkpt lat="48.65953" lon="2.47398">
        <ele>117.42</ele>
        <time>2014-11-08T09:55:25Z</time>
      </trkpt>
      <trkpt lat="48.65945" lon="2.47382">
        <ele>117.42</ele>
        <time>2014-11-08T09:55:33Z</time>
      </trkpt>
      <trkpt lat="48.6594" lon="2.47366">
        <ele>117.9</ele>
        <time>2014-11-08T09:55:40Z</time>
      </trkpt>
      <trkpt lat="48.65937" lon="2.47354">
        <ele>117.42</ele>
        <time>2014-11-08T09:55:45Z</time>
      </trkpt>
      <trkpt lat="48.65933" lon="2.47343">
        <ele>117.42</ele>
        <time>2014-11-08T09:55:51Z</time>
      </trkpt>
      <trkpt lat="48.6593" lon="2.473">
        <ele>117.9</ele>
        <time>2014-11-08T09:56:06Z</time>
      </trkpt>
      <trkpt lat="48.65928" lon="2.47272">
        <ele>117.42</ele>
        <time>2014-11-08T09:56:16Z</time>
      </trkpt>
      <trkpt lat="48.65928" lon="2.47263">
        <ele>116.94</ele>
        <time>2014-11-08T09:56:20Z</time>
      </trkpt>
      <trkpt lat="48.65924" lon="2.4725">
        <ele>116.46</ele>
        <time>2014-11-08T09:56:27Z</time>
      </trkpt>
      <trkpt lat="48.65926" lon="2.47231">
        <ele>115.98</ele>
        <time>2014-11-08T09:56:34Z</time>
      </trkpt>
      <trkpt lat="48.65919" lon="2.47216">
        <ele>115.98</ele>
        <time>2014-11-08T09:56:41Z</time>
      </trkpt>
      <trkpt lat="48.65912" lon="2.47197">
        <ele>116.46</ele>
        <time>2014-11-08T09:56:49Z</time>
      </trkpt>
      <trkpt lat="48.65904" lon="2.47161">
        <ele>116.94</ele>
        <time>2014-11-08T09:57:02Z</time>
      </trkpt>
      <trkpt lat="48.65899" lon="2.47143">
        <ele>115.98</ele>
        <time>2014-11-08T09:57:09Z</time>
      </trkpt>
      <trkpt lat="48.65897" lon="2.47132">
        <ele>115.98</ele>
        <time>2014-11-08T09:57:14Z</time>
      </trkpt>
      <trkpt lat="48.659" lon="2.47098">
        <ele>115.5</ele>
        <time>2014-11-08T09:57:27Z</time>
      </trkpt>
      <trkpt lat="48.65899" lon="2.47096">
        <ele>115.5</ele>
        <time>2014-11-08T09:57:28Z</time>
      </trkpt>
      <trkpt lat="48.65894" lon="2.4709">
        <ele>115.01</ele>
        <time>2014-11-08T09:57:32Z</time>
      </trkpt>
      <trkpt lat="48.6589" lon="2.47073">
        <ele>115.01</ele>
        <time>2014-11-08T09:57:39Z</time>
      </trkpt>
      <trkpt lat="48.65888" lon="2.47065">
        <ele>115.5</ele>
        <time>2014-11-08T09:57:43Z</time>
      </trkpt>
      <trkpt lat="48.65878" lon="2.47038">
        <ele>115.5</ele>
        <time>2014-11-08T09:57:55Z</time>
      </trkpt>
      <trkpt lat="48.65873" lon="2.47033">
        <ele>116.46</ele>
        <time>2014-11-08T09:57:59Z</time>
      </trkpt>
      <trkpt lat="48.65868" lon="2.46996">
        <ele>116.46</ele>
        <time>2014-11-08T09:58:13Z</time>
      </trkpt>
      <trkpt lat="48.65862" lon="2.46985">
        <ele>115.5</ele>
        <time>2014-11-08T09:58:18Z</time>
      </trkpt>
      <trkpt lat="48.65861" lon="2.46968">
        <ele>115.5</ele>
        <time>2014-11-08T09:58:26Z</time>
      </trkpt>
      <trkpt lat="48.65855" lon="2.46935">
        <ele>114.53</ele>
        <time>2014-11-08T09:58:40Z</time>
      </trkpt>
      <trkpt lat="48.65847" lon="2.46906">
        <ele>114.05</ele>
        <time>2014-11-08T09:58:52Z</time>
      </trkpt>
      <trkpt lat="48.65845" lon="2.469">
        <ele>115.5</ele>
        <time>2014-11-08T09:58:55Z</time>
      </trkpt>
      <trkpt lat="48.65839" lon="2.46875">
        <ele>116.94</ele>
        <time>2014-11-08T09:59:07Z</time>
      </trkpt>
      <trkpt lat="48.65833" lon="2.46867">
        <ele>116.94</ele>
        <time>2014-11-08T09:59:13Z</time>
      </trkpt>
      <trkpt lat="48.65827" lon="2.46837">
        <ele>117.42</ele>
        <time>2014-11-08T09:59:26Z</time>
      </trkpt>
      <trkpt lat="48.65827" lon="2.46831">
        <ele>117.42</ele>
        <time>2014-11-08T09:59:28Z</time>
      </trkpt>
      <trkpt lat="48.65822" lon="2.46804">
        <ele>117.9</ele>
        <time>2014-11-08T09:59:38Z</time>
      </trkpt>
      <trkpt lat="48.65819" lon="2.46785">
        <ele>116.94</ele>
        <time>2014-11-08T09:59:46Z</time>
      </trkpt>
      <trkpt lat="48.65812" lon="2.46763">
        <ele>116.94</ele>
        <time>2014-11-08T09:59:56Z</time>
      </trkpt>
      <trkpt lat="48.65806" lon="2.46736">
        <ele>117.42</ele>
        <time>2014-11-08T10:00:07Z</time>
      </trkpt>
      <trkpt lat="48.65797" lon="2.46721">
        <ele>116.94</ele>
        <time>2014-11-08T10:00:17Z</time>
      </trkpt>
      <trkpt lat="48.65786" lon="2.46713">
        <ele>116.94</ele>
        <time>2014-11-08T10:00:25Z</time>
      </trkpt>
      <trkpt lat="48.65768" lon="2.46703">
        <ele>114.05</ele>
        <time>2014-11-08T10:00:38Z</time>
      </trkpt>
      <trkpt lat="48.65754" lon="2.467">
        <ele>114.53</ele>
        <time>2014-11-08T10:00:51Z</time>
      </trkpt>
      <trkpt lat="48.65737" lon="2.46696">
        <ele>115.01</ele>
        <time>2014-11-08T10:01:04Z</time>
      </trkpt>
      <trkpt lat="48.65708" lon="2.46691">
        <ele>111.65</ele>
        <time>2014-11-08T10:01:19Z</time>
      </trkpt>
      <trkpt lat="48.65687" lon="2.46692">
        <ele>110.69</ele>
        <time>2014-11-08T10:01:34Z</time>
      </trkpt>
      <trkpt lat="48.65674" lon="2.46696">
        <ele>111.65</ele>
        <time>2014-11-08T10:01:48Z</time>
      </trkpt>
      <trkpt lat="48.65665" lon="2.46701">
        <ele>112.13</ele>
        <time>2014-11-08T10:01:54Z</time>
      </trkpt>
      <trkpt lat="48.65636" lon="2.46708">
        <ele>110.69</ele>
        <time>2014-11-08T10:02:08Z</time>
      </trkpt>
      <trkpt lat="48.65633" lon="2.46709">
        <ele>107.81</ele>
        <time>2014-11-08T10:02:10Z</time>
      </trkpt>
      <trkpt lat="48.65619" lon="2.46699">
        <ele>106.84</ele>
        <time>2014-11-08T10:02:26Z</time>
      </trkpt>
      <trkpt lat="48.65607" lon="2.46691">
        <ele>113.57</ele>
        <time>2014-11-08T10:02:40Z</time>
      </trkpt>
      <trkpt lat="48.65597" lon="2.46695">
        <ele>115.01</ele>
        <time>2014-11-08T10:02:54Z</time>
      </trkpt>
      <trkpt lat="48.65595" lon="2.46696">
        <ele>115.01</ele>
        <time>2014-11-08T10:02:55Z</time>
      </trkpt>
      <trkpt lat="48.65589" lon="2.46699">
        <ele>115.5</ele>
        <time>2014-11-08T10:02:59Z</time>
      </trkpt>
      <trkpt lat="48.65568" lon="2.46706">
        <ele>115.98</ele>
        <time>2014-11-08T10:03:16Z</time>
      </trkpt>
      <trkpt lat="48.65563" lon="2.46708">
        <ele>115.98</ele>
        <time>2014-11-08T10:03:21Z</time>
      </trkpt>
      <trkpt lat="48.65549" lon="2.46713">
        <ele>116.94</ele>
        <time>2014-11-08T10:03:36Z</time>
      </trkpt>
      <trkpt lat="48.65527" lon="2.46721">
        <ele>117.42</ele>
        <time>2014-11-08T10:03:47Z</time>
      </trkpt>
      <trkpt lat="48.65517" lon="2.46729">
        <ele>119.34</ele>
        <time>2014-11-08T10:03:59Z</time>
      </trkpt>
      <trkpt lat="48.655" lon="2.46738">
        <ele>120.78</ele>
        <time>2014-11-08T10:04:09Z</time>
      </trkpt>
      <trkpt lat="48.65491" lon="2.46744">
        <ele>121.74</ele>
        <time>2014-11-08T10:04:22Z</time>
      </trkpt>
      <trkpt lat="48.65473" lon="2.46751">
        <ele>122.22</ele>
        <time>2014-11-08T10:04:33Z</time>
      </trkpt>
      <trkpt lat="48.65468" lon="2.46758">
        <ele>122.71</ele>
        <time>2014-11-08T10:04:44Z</time>
      </trkpt>
      <trkpt lat="48.65457" lon="2.46768">
        <ele>122.22</ele>
        <time>2014-11-08T10:04:56Z</time>
      </trkpt>
      <trkpt lat="48.65415" lon="2.46787">
        <ele>116.94</ele>
        <time>2014-11-08T10:05:09Z</time>
      </trkpt>
      <trkpt lat="48.65382" lon="2.46793">
        <ele>106.36</ele>
        <time>2014-11-08T10:05:20Z</time>
      </trkpt>
      <trkpt lat="48.6538" lon="2.46793">
        <ele>105.4</ele>
        <time>2014-11-08T10:05:22Z</time>
      </trkpt>
      <trkpt lat="48.65372" lon="2.46795">
        <ele>102.52</ele>
        <time>2014-11-08T10:05:28Z</time>
      </trkpt>
    </trkseg>
  </trk>
</gpx>